Flight Track Log - Related Links

Times and Time Zones

All times are in EDT time to prevent confusion due to time zone crossing. See the N244A flight status page for this flight to view local times or setup timezone preferences in your user account.

Time Position Orientation Groundspeed Altitude Reporting Facility
EDT Latitude Longitude Course Direction KTS MPH feet Rate Location/Type
Wed 11:17:07 PM 28.5500 -81.3167 77° East 144 166 500  Level Orlando TRACON
Wed 11:18:31 PM 28.5667 -81.2333 77° East 224 258 3,800 2,500 Climbing Orlando TRACON
Wed 11:19:31 PM 28.5167 -81.2000 150° Southeast 244 281 6,500 2,800 Climbing Orlando TRACON
Wed 11:20:31 PM 28.4500 -81.2167 192° South 270 311 9,400 2,219 Climbing Orlando TRACON
Wed 11:22:43 PM 28.2903 -81.3056 206° Southwest 326 375 13,600 1,445 Climbing Miami Center
Wed 11:23:42 PM 28.1947 -81.3558 205° Southwest 346 398 14,000 202 Climbing Miami Center
Wed 11:24:42 PM 28.0886 -81.4128 205° Southwest 380 437 14,000  Level Miami Center
Wed 11:25:42 PM 27.9867 -81.4675 205° Southwest 398 458 14,000  Level Miami Center
Wed 11:26:43 PM 27.8869 -81.5244 207° Southwest 398 458 14,000  Level Miami Center
Wed 11:27:43 PM 27.7892 -81.5792 206° Southwest 403 464 14,000  Level Miami Center
Wed 11:28:41 PM 27.6869 -81.6336 205° Southwest 403 464 14,000  Level Miami Center
Wed 11:29:42 PM 27.6064 -81.6747 204° Southwest 403 464 14,000  Level Miami Center
Wed 11:30:41 PM 27.4817 -81.7233 199° South 403 464 14,000  Level Miami Center
Wed 11:31:43 PM 27.3825 -81.6911 164° South 364 419 14,000  Level Miami Center
Wed 11:32:40 PM 27.2883 -81.6381 153° Southeast 364 419 14,000 -410 Level Miami Center
Wed 11:33:40 PM 27.1958 -81.5897 155° Southeast 371 427 13,200 -942 Descending Miami Center
Wed 11:34:41 PM 27.1017 -81.5394 155° Southeast 371 427 12,100 -595 Descending Miami Center
Wed 11:35:41 PM 27.0153 -81.4939 155° Southeast 364 419 12,000 -541 Descending Miami Center
Wed 11:36:43 PM 26.9311 -81.4486 154° Southeast 340 391 11,000 -496 Descending Miami Center
Wed 11:37:42 PM 26.8553 -81.4083 155° Southeast 319 367 11,000  Level Miami Center
Wed 11:38:41 PM 26.7753 -81.4239 190° South 290 334 11,000 -454 Level Miami Center
Wed 11:39:41 PM 26.6989 -81.4675 207° Southwest 302 348 10,100 -1,488 Descending Miami Center
Wed 11:40:42 PM 26.6308 -81.5042 206° Southwest 297 342 8,000 -2,269 Descending Miami Center
Wed 11:41:40 PM 26.5606 -81.5456 208° Southwest 284 327 5,600 -1,513 Descending Miami Center
Wed 11:42:41 PM 26.4969 -81.5803 206° Southwest 276 318 5,000 -590 Descending Miami Center
Wed 11:44:00 PM 26.3973 -81.6180 204° Southwest  Level FlightAware Approximate

Login

Don't have an account? Register now (free) for customized features, flight alerts, and more!